Time;durP1;ratioP1;P1;durP2;ratioP2;P2;SDS_P1;SDS_P2;PMS_P1;PMS_P2;Temp;Humidity;BMP_temperature;BMP_pressure;BME280_temperature;BME280_humidity;BME280_pressure;Samples;Min_cycle;Max_cycle;Signal;HPM_P1;HPM_P2
2021/03/09 08:58:58;;;;;;;0.00;0.00;;;;;;;;;;6250148;22;20032;31
2021/03/09 09:01:24;;;;;;;0.00;0.00;;;;;;;;;;6161744;23;20024;-93
2021/03/09 09:03:49;;;;;;;0.00;0.00;;;;;;;;;;6131760;23;20009;-92
2021/03/09 09:06:15;;;;;;;0.00;0.00;;;;;;;;;;6134262;23;20310;-93
2021/03/09 09:08:41;;;;;;;0.00;0.00;;;;;;;;;;6136955;23;20008;-92
2021/03/09 09:11:06;;;;;;;0.00;0.00;;;;;;;;;;6136599;23;20017;-94
2021/03/09 09:13:33;;;;;;;0.00;0.00;;;;;;;;;;6135605;23;20055;-93
2021/03/09 09:15:58;;;;;;;0.03;0.03;;;;;;;;;;6131137;23;20001;-93
2021/03/09 09:18:24;;;;;;;0.00;0.00;;;;;;;;;;6131822;23;20005;-91
2021/03/09 09:20:51;;;;;;;0.00;0.00;;;;;;;;;;6135623;23;20513;-92
2021/03/09 09:23:19;;;;;;;0.00;0.00;;;;;;;;;;6133818;23;20029;-91
2021/03/09 09:25:46;;;;;;;0.00;0.00;;;;;;;;;;6160083;23;20005;-89
2021/03/09 09:28:21;;;;;;;0.00;0.00;;;;;;;;;;6135813;23;20001;-93
2021/03/09 09:30:49;;;;;;;0.00;0.00;;;;;;;;;;6135796;23;20005;-92
2021/03/09 09:33:14;;;;;;;0.00;0.00;;;;;;;;;;6135936;23;20005;-93
2021/03/09 09:35:49;;;;;;;0.00;0.00;;;;;;;;;;6137369;23;20008;-94
2021/03/09 09:38:15;;;;;;;0.00;0.00;;;;;;;;;;6136455;23;20005;-92
2021/03/09 09:40:48;;;;;;;0.00;0.00;;;;;;;;;;6138055;23;20140;-94
2021/03/09 09:43:17;;;;;;;0.00;0.00;;;;;;;;;;6130128;23;20012;-93
2021/03/09 09:45:43;;;;;;;0.00;0.00;;;;;;;;;;6127416;23;20001;-92
2021/03/09 09:48:09;;;;;;;0.00;0.00;;;;;;;;;;6134737;23;20435;-90
2021/03/09 09:50:36;;;;;;;0.00;0.00;;;;;;;;;;6135258;23;20001;-91
2021/03/09 09:53:02;;;;;;;0.00;0.00;;;;;;;;;;6135689;23;20001;-90
2021/03/09 09:55:29;;;;;;;0.00;0.00;;;;;;;;;;6135424;23;20456;-93
2021/03/09 09:57:55;;;;;;;0.00;0.00;;;;;;;;;;6135360;23;20005;-93
2021/03/09 10:00:22;;;;;;;0.00;0.00;;;;;;;;;;6134756;23;20021;-93
2021/03/09 10:02:57;;;;;;;0.00;0.00;;;;;;;;;;6135142;23;20055;-93
2021/03/09 10:05:24;;;;;;;0.00;0.00;;;;;;;;;;6135958;23;19993;-92
2021/03/09 10:07:49;;;;;;;0.10;0.10;;;;;;;;;;6135327;23;20439;-93
2021/03/09 10:10:15;;;;;;;0.00;0.00;;;;;;;;;;6135419;23;20100;-92
2021/03/09 10:12:41;;;;;;;0.00;0.00;;;;;;;;;;6135808;23;20005;-93
2021/03/09 10:15:07;;;;;;;0.00;0.00;;;;;;;;;;6135165;23;20012;-91
2021/03/09 10:17:35;;;;;;;0.00;0.00;;;;;;;;;;6135606;23;20055;-93
2021/03/09 10:20:01;;;;;;;0.00;0.00;;;;;;;;;;6136061;23;20055;-93
2021/03/09 10:22:27;;;;;;;0.00;0.00;;;;;;;;;;6135833;23;20013;-93
2021/03/09 10:24:53;;;;;;;0.00;0.00;;;;;;;;;;6136192;23;20023;-93
2021/03/09 10:27:19;;;;;;;0.00;0.00;;;;;;;;;;6136151;23;20321;-92
2021/03/09 10:29:58;;;;;;;0.00;0.00;;;;;;;;;;6135681;23;20004;-90
2021/03/09 10:32:24;;;;;;;0.00;0.00;;;;;;;;;;6134010;23;20009;-94
2021/03/09 10:34:52;;;;;;;0.00;0.00;;;;;;;;;;6135036;23;20024;-92
2021/03/09 10:37:19;;;;;;;0.00;0.00;;;;;;;;;;6136030;23;19994;-90
2021/03/09 10:39:54;;;;;;;0.00;0.00;;;;;;;;;;6136052;23;20504;-91
2021/03/09 10:42:29;;;;;;;0.00;0.00;;;;;;;;;;6135903;23;20340;-93
2021/03/09 10:44:55;;;;;;;0.00;0.00;;;;;;;;;;6130853;23;19993;-93
2021/03/09 10:47:21;;;;;;;0.00;0.00;;;;;;;;;;6135414;23;20418;-93
2021/03/09 10:49:46;;;;;;;0.00;0.00;;;;;;;;;;6135359;23;20001;-93
2021/03/09 10:52:12;;;;;;;0.00;0.00;;;;;;;;;;6135621;23;20005;-93
2021/03/09 10:54:37;;;;;;;0.00;0.00;;;;;;;;;;6136343;23;19997;-92
2021/03/09 10:57:06;;;;;;;0.00;0.00;;;;;;;;;;6135238;23;20005;-93
2021/03/09 10:59:34;;;;;;;0.00;0.00;;;;;;;;;;6153959;23;20021;-91
2021/03/09 11:02:05;;;;;;;0.00;0.00;;;;;;;;;;6135872;23;20005;-94
2021/03/09 11:04:30;;;;;;;0.00;0.00;;;;;;;;;;6139999;23;20004;-92
2021/03/09 11:07:34;;;;;;;0.00;0.00;;;;;;;;;;6136339;23;20007;-92
2021/03/09 11:10:26;;;;;;;0.00;0.00;;;;;;;;;;6147665;23;20002;-93
2021/03/09 11:13:03;;;;;;;0.00;0.00;;;;;;;;;;6158474;23;20028;-93
2021/03/09 11:15:55;;;;;;;0.00;0.00;;;;;;;;;;6133368;23;19996;-92
2021/03/09 11:25:16;;;;;;;0.00;0.00;;;;;;;;;;6117326;23;20002;-93
2021/03/09 11:30:31;;;;;;;0.00;0.00;;;;;;;;;;6093473;23;20040;-91
2021/03/09 11:52:19;;;;;;;0.00;0.00;;;;;;;;;;6037412;23;20082;-92
2021/03/09 11:54:53;;;;;;;0.00;0.00;;;;;;;;;;6045694;23;20014;-91
2021/03/09 11:57:44;;;;;;;0.00;0.00;;;;;;;;;;6123767;23;20080;-93
2021/03/09 12:03:18;;;;;;;0.00;0.00;;;;;;;;;;6106966;23;20137;-94
2021/03/09 12:05:48;;;;;;;0.00;0.00;;;;;;;;;;6128914;23;20430;-91
2021/03/09 12:08:19;;;;;;;0.00;0.00;;;;;;;;;;6106759;23;20001;-94
2021/03/09 12:10:48;;;;;;;0.00;0.00;;;;;;;;;;6144471;23;20424;-92
2021/03/09 12:22:50;;;;;;;0.00;0.00;;;;;;;;;;6008962;23;19999;-91
2021/03/09 12:25:49;;;;;;;0.00;0.00;;;;;;;;;;6063741;23;20006;-93
2021/03/09 12:28:20;;;;;;;0.00;0.00;;;;;;;;;;6022560;23;20003;-93
2021/03/09 12:34:40;;;;;;;0.00;0.00;;;;;;;;;;5958082;24;20067;-93
2021/03/09 12:40:33;;;;;;;0.00;0.00;;;;;;;;;;6151986;23;19993;-91
2021/03/09 12:46:20;;;;;;;0.00;0.00;;;;;;;;;;6191937;23;19996;-93
2021/03/09 12:54:48;;;;;;;0.00;0.00;;;;;;;;;;6089515;23;19998;-93
2021/03/09 12:57:13;;;;;;;0.00;0.00;;;;;;;;;;6160644;23;20267;-90
2021/03/09 12:59:39;;;;;;;0.00;0.00;;;;;;;;;;6166024;23;20392;-92
2021/03/09 13:11:32;;;;;;;0.00;0.00;;;;;;;;;;6182898;23;20011;-94
2021/03/09 13:14:37;;;;;;;0.00;0.00;;;;;;;;;;6168312;23;20024;-92
2021/03/09 13:17:06;;;;;;;0.00;0.00;;;;;;;;;;6192994;23;20005;-93
2021/03/09 13:19:37;;;;;;;0.00;0.00;;;;;;;;;;6164670;23;20026;-93
2021/03/09 13:22:05;;;;;;;0.00;0.00;;;;;;;;;;6166365;23;20434;-93
2021/03/09 13:24:53;;;;;;;0.00;0.00;;;;;;;;;;6136576;23;20360;-93
2021/03/09 13:27:19;;;;;;;0.00;0.00;;;;;;;;;;6164606;23;20059;-92
2021/03/09 13:29:58;;;;;;;0.13;0.13;;;;;;;;;;6127269;23;20005;-93
2021/03/09 13:32:29;;;;;;;0.10;0.10;;;;;;;;;;6165246;23;20405;-91
2021/03/09 13:34:54;;;;;;;0.00;0.00;;;;;;;;;;6129462;23;20424;-91
2021/03/09 13:37:22;;;;;;;0.00;0.00;;;;;;;;;;6163830;23;20068;-93
2021/03/09 13:39:53;;;;;;;0.00;0.00;;;;;;;;;;6165060;23;20008;-93
2021/03/09 13:42:21;;;;;;;0.00;0.00;;;;;;;;;;6167474;23;20001;-92
2021/03/09 13:45:04;;;;;;;0.00;0.00;;;;;;;;;;6127705;23;20012;-93
2021/03/09 13:47:35;;;;;;;0.00;0.00;;;;;;;;;;6130389;23;20196;-93
2021/03/09 13:50:03;;;;;;;0.00;0.00;;;;;;;;;;6166697;23;20008;-94
2021/03/09 13:52:32;;;;;;;0.00;0.00;;;;;;;;;;6167056;23;19997;-93
2021/03/09 13:54:58;;;;;;;0.00;0.00;;;;;;;;;;6167217;23;20420;-93
2021/03/09 13:57:23;;;;;;;0.00;0.00;;;;;;;;;;6165572;23;20043;-92
2021/03/09 13:59:52;;;;;;;0.00;0.00;;;;;;;;;;6133181;23;20429;-93
2021/03/09 14:02:17;;;;;;;0.00;0.00;;;;;;;;;;6161145;23;20027;-91
2021/03/09 14:04:43;;;;;;;0.00;0.00;;;;;;;;;;6165678;23;20004;-93
2021/03/09 14:07:17;;;;;;;0.00;0.00;;;;;;;;;;6139527;23;20234;-90
2021/03/09 14:09:42;;;;;;;0.00;0.00;;;;;;;;;;6161559;23;20024;-93
2021/03/09 14:12:08;;;;;;;0.08;0.08;;;;;;;;;;6164683;23;20007;-91
2021/03/09 14:14:37;;;;;;;0.00;0.00;;;;;;;;;;6165035;23;19996;-92
2021/03/09 14:17:05;;;;;;;0.00;0.00;;;;;;;;;;6165858;23;19997;-93
2021/03/09 14:19:34;;;;;;;0.00;0.00;;;;;;;;;;6165828;23;20004;-93
2021/03/09 14:22:01;;;;;;;0.00;0.00;;;;;;;;;;6168020;23;19996;-92
2021/03/09 14:24:32;;;;;;;0.00;0.00;;;;;;;;;;6166160;23;20008;-92
2021/03/09 14:29:59;;;;;;;0.00;0.00;;;;;;;;;;6126001;23;20078;-93
2021/03/09 14:32:25;;;;;;;0.00;0.00;;;;;;;;;;6131716;23;20492;-90
2021/03/09 14:34:50;;;;;;;0.00;0.00;;;;;;;;;;6158545;23;20020;-91
2021/03/09 14:37:25;;;;;;;0.00;0.00;;;;;;;;;;6165742;23;20011;-93
2021/03/09 14:39:51;;;;;;;0.00;0.00;;;;;;;;;;6131653;23;20669;-92
2021/03/09 14:42:19;;;;;;;0.00;0.00;;;;;;;;;;6163109;23;20004;-94
2021/03/09 14:44:45;;;;;;;0.00;0.00;;;;;;;;;;6165203;23;20026;-92
2021/03/09 14:47:10;;;;;;;0.00;0.00;;;;;;;;;;6134685;23;20000;-93
2021/03/09 14:50:03;;;;;;;0.00;0.00;;;;;;;;;;6157488;23;20011;-91
2021/03/09 14:52:30;;;;;;;0.00;0.00;;;;;;;;;;6194949;23;20083;-93
2021/03/09 14:54:56;;;;;;;0.00;0.00;;;;;;;;;;6142873;23;20087;-93
2021/03/09 14:57:21;;;;;;;0.00;0.00;;;;;;;;;;6158893;23;20031;-93
2021/03/09 14:59:50;;;;;;;0.00;0.00;;;;;;;;;;6166437;23;20064;-95
2021/03/09 15:02:15;;;;;;;0.00;0.00;;;;;;;;;;6163843;23;20086;-93
2021/03/09 15:04:41;;;;;;;0.00;0.00;;;;;;;;;;6164710;23;20032;-93
2021/03/09 15:07:09;;;;;;;0.00;0.00;;;;;;;;;;6128654;23;20063;-93
2021/03/09 15:09:35;;;;;;;0.00;0.00;;;;;;;;;;6133490;23;20486;-91
2021/03/09 15:12:03;;;;;;;0.00;0.00;;;;;;;;;;6159352;23;20002;-93
2021/03/09 15:14:32;;;;;;;0.00;0.00;;;;;;;;;;6127368;23;20360;-93
2021/03/09 15:16:58;;;;;;;0.00;0.00;;;;;;;;;;6165597;23;20029;-93
2021/03/09 15:19:26;;;;;;;0.00;0.00;;;;;;;;;;6146597;23;20000;-93
2021/03/09 15:21:52;;;;;;;0.00;0.00;;;;;;;;;;6153438;23;19997;-93
2021/03/09 15:24:17;;;;;;;0.00;0.00;;;;;;;;;;6164977;23;20001;-92
2021/03/09 15:26:44;;;;;;;0.00;0.00;;;;;;;;;;6165196;23;20293;-93
2021/03/09 15:29:09;;;;;;;0.00;0.00;;;;;;;;;;6159879;23;19996;-93
2021/03/09 15:31:38;;;;;;;0.00;0.00;;;;;;;;;;6162496;23;20066;-91
2021/03/09 15:34:04;;;;;;;0.00;0.00;;;;;;;;;;6158187;23;20000;-92
2021/03/09 15:36:29;;;;;;;0.00;0.00;;;;;;;;;;6185579;23;20004;-93
2021/03/09 15:38:54;;;;;;;0.00;0.00;;;;;;;;;;6165382;23;20408;-93
2021/03/09 15:41:20;;;;;;;0.00;0.00;;;;;;;;;;6165166;23;20007;-92
2021/03/09 15:43:46;;;;;;;0.00;0.00;;;;;;;;;;6185461;23;20058;-92
2021/03/09 15:46:11;;;;;;;0.00;0.00;;;;;;;;;;6139410;23;20260;-93
2021/03/09 15:48:36;;;;;;;0.00;0.00;;;;;;;;;;6164119;23;20412;-93
2021/03/09 15:51:02;;;;;;;0.00;0.00;;;;;;;;;;6161902;23;20297;-91
2021/03/09 15:53:27;;;;;;;0.00;0.00;;;;;;;;;;6163976;23;20044;-91
2021/03/09 15:55:53;;;;;;;0.00;0.00;;;;;;;;;;6164007;23;20052;-91
2021/03/09 15:58:18;;;;;;;0.00;0.00;;;;;;;;;;6161872;23;20001;-93
2021/03/09 16:00:44;;;;;;;0.00;0.00;;;;;;;;;;6164688;23;20020;-93
2021/03/09 16:03:10;;;;;;;0.00;0.00;;;;;;;;;;6164197;23;20005;-92
2021/03/09 16:05:36;;;;;;;0.00;0.00;;;;;;;;;;6160425;23;20008;-93
2021/03/09 16:08:01;;;;;;;0.00;0.00;;;;;;;;;;6163111;23;20024;-92
2021/03/09 16:10:27;;;;;;;0.00;0.00;;;;;;;;;;6163017;23;19996;-91
2021/03/09 16:12:52;;;;;;;0.00;0.00;;;;;;;;;;6163234;23;19996;-91
2021/03/09 16:15:18;;;;;;;0.00;0.00;;;;;;;;;;6161064;23;20074;-93
2021/03/09 16:17:44;;;;;;;0.00;0.00;;;;;;;;;;6164112;23;20088;-92
2021/03/09 16:20:09;;;;;;;0.00;0.00;;;;;;;;;;6164489;23;20052;-92
2021/03/09 16:22:35;;;;;;;0.00;0.00;;;;;;;;;;6158772;23;20421;-91
2021/03/09 16:25:03;;;;;;;0.00;0.00;;;;;;;;;;6182583;23;20000;-92
2021/03/09 16:27:29;;;;;;;0.00;0.00;;;;;;;;;;6155754;23;20004;-91
2021/03/09 16:29:55;;;;;;;0.00;0.00;;;;;;;;;;6163229;23;20001;-91
2021/03/09 16:32:21;;;;;;;0.00;0.00;;;;;;;;;;6158569;23;20086;-93
2021/03/09 16:34:46;;;;;;;0.00;0.00;;;;;;;;;;6160018;23;20007;-90
2021/03/09 16:37:12;;;;;;;0.00;0.00;;;;;;;;;;6164292;23;20003;-93
2021/03/09 16:39:38;;;;;;;0.00;0.00;;;;;;;;;;6160995;23;20008;-94
2021/03/09 16:42:04;;;;;;;0.00;0.00;;;;;;;;;;6159795;23;20000;-93
2021/03/09 16:44:29;;;;;;;0.00;0.00;;;;;;;;;;6163453;23;20011;-93
2021/03/09 16:47:01;;;;;;;0.00;0.00;;;;;;;;;;6161848;23;20005;-92
2021/03/09 16:49:26;;;;;;;0.00;0.00;;;;;;;;;;6158324;23;20015;-93
2021/03/09 16:51:55;;;;;;;0.00;0.00;;;;;;;;;;6162074;23;20063;-92
2021/03/09 16:54:28;;;;;;;0.00;0.00;;;;;;;;;;6159617;23;20025;-93
2021/03/09 16:56:57;;;;;;;0.00;0.00;;;;;;;;;;6163096;23;19988;-92
2021/03/09 16:59:28;;;;;;;0.00;0.00;;;;;;;;;;6164054;23;20135;-95
2021/03/09 17:01:56;;;;;;;0.00;0.00;;;;;;;;;;6164606;23;20017;-92
2021/03/09 17:04:22;;;;;;;0.00;0.00;;;;;;;;;;6163797;23;20009;-92
2021/03/09 17:06:58;;;;;;;0.00;0.00;;;;;;;;;;6164390;23;20079;-93
2021/03/09 17:09:26;;;;;;;0.00;0.00;;;;;;;;;;6164441;23;20004;-91
2021/03/09 17:11:53;;;;;;;0.00;0.00;;;;;;;;;;6164160;23;20000;-95
2021/03/09 17:14:21;;;;;;;0.00;0.00;;;;;;;;;;6174610;23;20087;-93
2021/03/09 17:16:49;;;;;;;0.00;0.00;;;;;;;;;;6166808;23;20002;-92
2021/03/09 17:19:29;;;;;;;0.00;0.00;;;;;;;;;;6165766;23;20000;-94
2021/03/09 17:21:58;;;;;;;0.00;0.00;;;;;;;;;;6168774;23;20302;-92
2021/03/09 17:24:26;;;;;;;0.00;0.00;;;;;;;;;;6181967;23;19992;-95
2021/03/09 17:32:51;;;;;;;0.00;0.00;;;;;;;;;;6181361;23;20001;-93
2021/03/09 17:35:43;;;;;;;0.00;0.00;;;;;;;;;;6161097;23;20088;-95
2021/03/09 17:38:09;;;;;;;0.00;0.00;;;;;;;;;;6167565;23;20001;-92
2021/03/09 17:40:51;;;;;;;0.00;0.00;;;;;;;;;;6166156;23;20004;-95
2021/03/09 17:43:19;;;;;;;0.00;0.00;;;;;;;;;;6168134;23;20004;-94
2021/03/09 17:45:48;;;;;;;0.00;0.00;;;;;;;;;;6166840;23;20004;-93
2021/03/09 17:48:19;;;;;;;0.00;0.00;;;;;;;;;;6162808;23;20080;-95
2021/03/09 17:50:49;;;;;;;0.00;0.00;;;;;;;;;;6166492;23;20005;-95
2021/03/09 18:13:16;;;;;;;0.00;0.00;;;;;;;;;;5826875;24;20121;-96
2021/03/09 18:21:51;;;;;;;0.00;0.00;;;;;;;;;;5847406;24;20014;-95
2021/03/09 18:30:05;;;;;;;0.00;0.00;;;;;;;;;;6153933;23;20036;-95
2021/03/09 18:32:40;;;;;;;0.00;0.00;;;;;;;;;;6131373;23;20325;-95
2021/03/09 18:35:57;;;;;;;0.00;0.00;;;;;;;;;;6139263;23;19997;-95
2021/03/09 18:44:25;;;;;;;0.00;0.00;;;;;;;;;;6124237;23;20043;-94
2021/03/09 18:47:32;;;;;;;0.00;0.00;;;;;;;;;;6106360;23;20008;-95
2021/03/09 18:56:02;;;;;;;0.00;0.00;;;;;;;;;;6078033;23;19999;-93
2021/03/09 19:10:56;;;;;;;0.00;0.00;;;;;;;;;;6099362;23;20042;-94
2021/03/09 19:19:39;;;;;;;0.00;0.00;;;;;;;;;;6186461;23;19956;-95
2021/03/09 19:31:39;;;;;;;0.00;0.00;;;;;;;;;;6135776;23;20134;-94
2021/03/09 19:34:39;;;;;;;0.00;0.00;;;;;;;;;;6125132;23;20009;-95
2021/03/09 19:49:49;;;;;;;0.00;0.00;;;;;;;;;;6045688;23;20010;-95
2021/03/09 19:52:22;;;;;;;0.00;0.00;;;;;;;;;;6109204;23;20425;-94
2021/03/09 20:49:53;;;;;;;0.00;0.00;;;;;;;;;;6307006;22;20023;-95
2021/03/09 20:52:22;;;;;;;0.00;0.00;;;;;;;;;;6262361;22;20022;-95
2021/03/09 20:54:47;;;;;;;0.00;0.00;;;;;;;;;;6261750;22;20043;-95
2021/03/09 20:57:16;;;;;;;0.00;0.00;;;;;;;;;;6262130;22;20004;-94
2021/03/09 20:59:41;;;;;;;0.00;0.00;;;;;;;;;;6257257;22;19995;-93
2021/03/09 21:02:07;;;;;;;0.00;0.00;;;;;;;;;;6257985;22;20007;-94
2021/03/09 21:04:32;;;;;;;0.00;0.00;;;;;;;;;;6258439;22;20003;-95
2021/03/09 21:06:58;;;;;;;0.00;0.00;;;;;;;;;;6257388;22;20003;-95
2021/03/09 21:09:24;;;;;;;0.00;0.00;;;;;;;;;;6256552;22;20074;-95
2021/03/09 21:11:50;;;;;;;0.00;0.00;;;;;;;;;;6256669;22;20086;-94
2021/03/09 21:14:16;;;;;;;0.00;0.00;;;;;;;;;;6257814;22;19995;-93
2021/03/09 21:16:41;;;;;;;0.00;0.00;;;;;;;;;;6258535;22;19995;-93
2021/03/09 21:19:36;;;;;;;0.00;0.00;;;;;;;;;;6264415;22;20007;-94
2021/03/09 21:22:02;;;;;;;0.00;0.00;;;;;;;;;;6261235;22;19996;-94
2021/03/09 21:24:27;;;;;;;0.00;0.00;;;;;;;;;;6279061;22;20014;-94
2021/03/09 21:26:53;;;;;;;0.00;0.00;;;;;;;;;;6262694;22;19999;-93
2021/03/09 21:29:19;;;;;;;0.00;0.00;;;;;;;;;;6288170;22;20018;-95
2021/03/09 21:31:44;;;;;;;0.00;0.00;;;;;;;;;;6257851;22;20011;-93
2021/03/09 21:47:16;;;;;;;0.00;0.00;;;;;;;;;;6212939;22;20039;-94
2021/03/09 21:49:44;;;;;;;0.00;0.00;;;;;;;;;;6261075;22;20050;-93
2021/03/09 21:52:20;;;;;;;0.00;0.00;;;;;;;;;;6254423;22;19999;-94
2021/03/09 21:55:34;;;;;;;0.00;0.00;;;;;;;;;;6257258;22;20003;-93
2021/03/09 21:57:34;;;;;;;0.00;0.00;;;;;;;;;;6239742;22;20027;-93
2021/03/09 22:03:20;;;;;;;0.00;0.00;;;;;;;;;;6193210;23;20001;-94
2021/03/09 22:06:48;;;;;;;0.00;0.00;;;;;;;;;;6149768;23;20001;-94
2021/03/09 22:27:51;;;;;;;0.00;0.00;;;;;;;;;;6250894;22;20055;-93
2021/03/09 22:30:40;;;;;;;0.00;0.00;;;;;;;;;;6220599;23;20042;-94
2021/03/09 22:33:06;;;;;;;0.00;0.00;;;;;;;;;;6209736;23;20012;-95
2021/03/09 22:35:50;;;;;;;0.00;0.00;;;;;;;;;;6202842;23;20007;-95
2021/03/09 22:42:10;;;;;;;0.00;0.00;;;;;;;;;;6131149;23;20004;-93
2021/03/09 22:48:08;;;;;;;0.00;0.00;;;;;;;;;;6199978;23;20001;-94
2021/03/09 22:50:36;;;;;;;0.00;0.00;;;;;;;;;;6205313;23;20016;-93
2021/03/09 22:53:08;;;;;;;0.00;0.00;;;;;;;;;;6192694;23;20056;-93
2021/03/09 22:56:08;;;;;;;0.00;0.00;;;;;;;;;;6203734;23;20022;-93
2021/03/09 22:58:45;;;;;;;0.00;0.00;;;;;;;;;;6184100;23;20019;-93
2021/03/09 23:01:40;;;;;;;0.00;0.00;;;;;;;;;;6202905;23;20004;-94
2021/03/09 23:04:07;;;;;;;0.00;0.00;;;;;;;;;;6204829;23;20000;-93
2021/03/09 23:06:35;;;;;;;0.00;0.00;;;;;;;;;;6201326;23;20381;-94
2021/03/09 23:09:03;;;;;;;0.00;0.00;;;;;;;;;;6201712;23;20052;-95
2021/03/09 23:11:29;;;;;;;0.00;0.00;;;;;;;;;;6200847;23;20008;-93
2021/03/09 23:14:00;;;;;;;0.00;0.00;;;;;;;;;;6198145;23;20007;-95
2021/03/09 23:16:29;;;;;;;0.00;0.00;;;;;;;;;;6200740;23;20035;-93
2021/03/09 23:18:55;;;;;;;0.00;0.00;;;;;;;;;;6200690;23;19996;-93
2021/03/09 23:21:30;;;;;;;0.15;0.15;;;;;;;;;;6200907;23;20086;-94
2021/03/09 23:24:04;;;;;;;0.00;0.00;;;;;;;;;;6202834;23;20000;-94
2021/03/09 23:26:35;;;;;;;0.00;0.00;;;;;;;;;;6201027;23;20028;-93
2021/03/09 23:29:02;;;;;;;0.00;0.00;;;;;;;;;;6201045;23;20019;-94
2021/03/09 23:31:38;;;;;;;0.00;0.00;;;;;;;;;;6200224;23;20005;-93
2021/03/09 23:34:10;;;;;;;0.00;0.00;;;;;;;;;;6201041;23;20004;-92
2021/03/09 23:37:05;;;;;;;0.00;0.00;;;;;;;;;;6223638;23;20004;-96
2021/03/09 23:40:16;;;;;;;0.00;0.00;;;;;;;;;;6227572;23;20324;-92
2021/03/09 23:43:04;;;;;;;0.00;0.00;;;;;;;;;;6249061;23;20416;-94
2021/03/09 23:45:35;;;;;;;0.00;0.00;;;;;;;;;;6198278;23;19993;-93
2021/03/09 23:48:02;;;;;;;0.00;0.00;;;;;;;;;;6194599;23;20023;-95
2021/03/09 23:53:31;;;;;;;0.00;0.00;;;;;;;;;;5912496;22;21326;-94
2021/03/09 23:55:57;;;;;;;3.75;3.28;;;;;;;;;;6243432;22;20003;-95
2021/03/09 23:58:23;;;;;;;0.00;0.00;;;;;;;;;;6260525;22;19999;-93
